createdAt,value
2019-03-03T00:02:29.951Z,100572.48
2019-03-03T00:07:54.730Z,100572.52
2019-03-03T00:13:19.468Z,100581.98
2019-03-03T00:18:44.607Z,100577.66
2019-03-03T00:24:10.466Z,100563.79
2019-03-03T00:29:35.082Z,100552.91
2019-03-03T00:34:59.685Z,100541.14
2019-03-03T00:40:33.137Z,100540.69
2019-03-03T00:46:07.181Z,100536.27
2019-03-03T00:51:36.302Z,100533.89
2019-03-03T00:57:11.945Z,100532.59
2019-03-03T01:02:51.885Z,100526.05
2019-03-03T01:08:31.370Z,100520.53
2019-03-03T01:14:19.784Z,100506.70
2019-03-03T01:20:19.027Z,100504.24
2019-03-03T01:25:42.900Z,100506.62
2019-03-03T01:31:07.576Z,100506.92
2019-03-03T01:36:31.258Z,100495.00
2019-03-03T01:41:55.303Z,100500.33
2019-03-03T01:47:20.369Z,100493.09
2019-03-03T01:52:44.631Z,100484.97
2019-03-03T01:58:09.326Z,100477.16
2019-03-03T02:03:35.580Z,100473.59
2019-03-03T02:08:59.839Z,100461.08
2019-03-03T02:14:25.609Z,100447.17
2019-03-03T02:19:49.512Z,100443.17
2019-03-03T02:25:14.491Z,100438.56
2019-03-03T02:30:40.816Z,100434.13
2019-03-03T02:36:05.681Z,100436.91
2019-03-03T02:41:30.312Z,100431.44
2019-03-03T02:46:54.463Z,100428.88
2019-03-03T02:52:19.310Z,100421.61
2019-03-03T02:57:43.315Z,100416.22
2019-03-03T03:03:10.647Z,100407.48
2019-03-03T03:08:54.410Z,100407.30
2019-03-03T03:14:33.907Z,100405.90
2019-03-03T03:20:21.522Z,100406.66
2019-03-03T03:25:52.872Z,100394.48
2019-03-03T03:31:37.243Z,100382.99
2019-03-03T03:37:06.494Z,100375.08
2019-03-03T03:43:05.980Z,100369.05
2019-03-03T03:48:48.022Z,100363.02
2019-03-03T03:54:30.279Z,100349.92
2019-03-03T04:00:06.788Z,100329.84
2019-03-03T04:05:47.547Z,100325.00
2019-03-03T04:11:17.704Z,100321.56
2019-03-03T04:17:10.206Z,100320.34
2019-03-03T04:22:51.918Z,100314.20
2019-03-03T04:28:31.683Z,100309.57
2019-03-03T04:34:02.623Z,100297.50
2019-03-03T04:39:50.273Z,100288.24
2019-03-03T04:45:20.127Z,100279.76
2019-03-03T04:50:58.890Z,100281.48
2019-03-03T04:56:32.019Z,100279.44
2019-03-03T05:02:03.461Z,100283.59
2019-03-03T05:07:36.230Z,100272.83
2019-03-03T05:13:16.527Z,100266.59
2019-03-03T05:18:44.887Z,100265.28
2019-03-03T05:24:08.843Z,100268.64
2019-03-03T05:29:32.836Z,100267.77
2019-03-03T05:34:56.690Z,100264.42
2019-03-03T05:40:20.534Z,100241.03
2019-03-03T05:45:45.027Z,100244.03
2019-03-03T05:51:09.726Z,100239.21
2019-03-03T05:56:33.578Z,100234.20
2019-03-03T06:01:58.399Z,100225.89
2019-03-03T06:07:23.338Z,100219.45
2019-03-03T06:12:47.943Z,100231.73
2019-03-03T06:18:12.332Z,100220.02
2019-03-03T06:23:36.058Z,100211.42
2019-03-03T06:29:00.701Z,100207.30
2019-03-03T06:34:25.804Z,100204.34
2019-03-03T06:39:49.641Z,100193.56
2019-03-03T06:45:14.712Z,100187.30
2019-03-03T06:50:39.137Z,100188.70
2019-03-03T06:56:03.016Z,100172.98
2019-03-03T07:01:27.000Z,100160.44
2019-03-03T07:06:51.970Z,100163.91
2019-03-03T07:12:16.422Z,100157.67
2019-03-03T07:17:41.217Z,100159.44
2019-03-03T07:23:05.283Z,100154.97
2019-03-03T07:28:29.747Z,100157.88
2019-03-03T07:33:57.336Z,100153.27
2019-03-03T07:39:21.128Z,100159.33
2019-03-03T07:44:45.738Z,100141.03
2019-03-03T07:50:09.995Z,100149.48
2019-03-03T07:55:34.612Z,100141.52
2019-03-03T08:00:58.448Z,100135.80
2019-03-03T08:06:23.185Z,100135.67
2019-03-03T08:11:47.976Z,100146.86
2019-03-03T08:17:12.400Z,100130.19
2019-03-03T08:22:36.137Z,100125.14
2019-03-03T08:28:00.587Z,100120.47
2019-03-03T08:33:25.357Z,100113.50
2019-03-03T08:38:50.473Z,100120.22
2019-03-03T08:44:22.445Z,100086.47
2019-03-03T08:49:52.936Z,100121.73
2019-03-03T08:55:35.905Z,100086.02
2019-03-03T09:01:23.032Z,100096.06
2019-03-03T09:06:55.616Z,100112.73
2019-03-03T09:12:41.832Z,100107.70
2019-03-03T09:18:15.164Z,100111.97
2019-03-03T09:23:57.805Z,100115.24
2019-03-03T09:29:30.480Z,100120.45
2019-03-03T09:35:13.745Z,100105.52
2019-03-03T09:41:03.610Z,100128.72
2019-03-03T09:46:52.283Z,100115.41
2019-03-03T09:52:23.842Z,100101.45
2019-03-03T09:58:13.949Z,100095.34
2019-03-03T10:04:05.831Z,100102.79
2019-03-03T10:09:52.672Z,100109.88
2019-03-03T10:15:37.661Z,100124.05
2019-03-03T10:21:14.151Z,100117.67
2019-03-03T10:26:53.790Z,100114.79
2019-03-03T10:32:34.572Z,100118.98
2019-03-03T10:38:16.906Z,100116.35
2019-03-03T10:43:53.405Z,100127.95
2019-03-03T10:49:39.293Z,100106.58
2019-03-03T10:55:13.938Z,100108.83
2019-03-03T11:00:57.739Z,100095.70
2019-03-03T11:06:31.795Z,100129.61
2019-03-03T11:12:13.242Z,100099.73
2019-03-03T11:17:50.738Z,100106.50
2019-03-03T11:23:41.099Z,100111.48
2019-03-03T11:29:29.526Z,100106.05
2019-03-03T11:35:14.225Z,100100.38
2019-03-03T11:40:44.977Z,100089.55
2019-03-03T11:46:21.689Z,100084.45
2019-03-03T11:52:05.617Z,100080.02
2019-03-03T11:57:58.445Z,100090.30
2019-03-03T12:03:40.293Z,100089.75
2019-03-03T12:09:22.827Z,100081.14
2019-03-03T12:15:07.388Z,100082.39
2019-03-03T12:20:48.562Z,100086.77
2019-03-03T12:26:38.499Z,100101.84
2019-03-03T12:32:19.603Z,100092.32
2019-03-03T12:38:05.901Z,100085.88
2019-03-03T12:43:39.773Z,100079.38
2019-03-03T12:49:12.277Z,100088.59
2019-03-03T12:54:55.880Z,100062.02
2019-03-03T13:00:26.266Z,100052.09
2019-03-03T13:06:08.661Z,100059.19
2019-03-03T13:11:45.582Z,100052.97
2019-03-03T13:17:25.946Z,100059.67
2019-03-03T13:23:18.020Z,100045.13
2019-03-03T13:29:00.217Z,100035.00
2019-03-03T13:34:41.036Z,100031.77
2019-03-03T13:40:21.787Z,100023.91
2019-03-03T13:45:45.428Z,100022.08
2019-03-03T13:51:10.023Z,100022.51
2019-03-03T13:56:34.569Z,100018.57
2019-03-03T14:02:00.429Z,100008.62
2019-03-03T14:07:25.146Z,100007.13
2019-03-03T14:12:49.066Z,99990.88
2019-03-03T14:18:13.273Z,99988.80
2019-03-03T14:23:40.400Z,99968.27
2019-03-03T14:29:04.533Z,99993.50
2019-03-03T14:34:28.174Z,99979.59
2019-03-03T14:39:52.611Z,99967.89
2019-03-03T14:45:17.397Z,99976.22
2019-03-03T14:50:41.890Z,99976.50
2019-03-03T14:56:06.863Z,99978.05
2019-03-03T15:01:32.679Z,99977.16
2019-03-03T15:06:57.880Z,99981.46
2019-03-03T15:12:22.684Z,99960.86
2019-03-03T15:17:47.401Z,99961.91
2019-03-03T15:23:11.501Z,99960.41
2019-03-03T15:28:35.330Z,99975.15
2019-03-03T15:34:00.074Z,99960.00
2019-03-03T15:39:24.893Z,99959.77
2019-03-03T15:44:49.240Z,99962.82
2019-03-03T15:50:13.326Z,99947.81
2019-03-03T15:55:37.153Z,99944.78
2019-03-03T16:01:02.699Z,99941.47
2019-03-03T16:06:27.753Z,99928.05
2019-03-03T16:11:51.539Z,99929.27
2019-03-03T16:17:15.344Z,99932.02
2019-03-03T16:22:40.038Z,99921.44
2019-03-03T16:28:04.568Z,99904.42
2019-03-03T16:33:28.521Z,99901.37
2019-03-03T16:38:52.147Z,99901.00
2019-03-03T16:44:16.014Z,99890.58
2019-03-03T16:49:40.812Z,99882.61
2019-03-03T16:55:05.581Z,99885.37
2019-03-03T17:00:30.535Z,99888.42
2019-03-03T17:05:54.166Z,99870.57
2019-03-03T17:11:19.060Z,99872.52
2019-03-03T17:16:43.393Z,99869.28
2019-03-03T17:22:08.280Z,99864.52
2019-03-03T17:27:33.070Z,99867.62
2019-03-03T17:32:57.138Z,99872.95
2019-03-03T17:38:21.641Z,99870.09
2019-03-03T17:43:46.373Z,99868.55
2019-03-03T17:49:11.150Z,99864.50
2019-03-03T17:54:35.788Z,99865.09
2019-03-03T17:59:59.761Z,99843.33
2019-03-03T18:05:24.350Z,99837.84
2019-03-03T18:10:48.952Z,99828.92
2019-03-03T18:16:13.880Z,99827.19
2019-03-03T18:21:39.007Z,99817.77
2019-03-03T18:27:04.805Z,99826.45
2019-03-03T18:32:29.307Z,99829.16
2019-03-03T18:37:55.245Z,99826.20
2019-03-03T18:43:20.102Z,99812.59
2019-03-03T18:48:44.888Z,99812.03
2019-03-03T18:54:08.610Z,99813.00
2019-03-03T18:59:35.145Z,99816.18
2019-03-03T19:04:59.512Z,99804.66
2019-03-03T19:10:25.339Z,99801.67
2019-03-03T19:15:50.324Z,99799.17
2019-03-03T19:21:15.144Z,99787.24
2019-03-03T19:26:38.843Z,99792.17
2019-03-03T19:32:04.514Z,99794.93
2019-03-03T19:37:28.352Z,99779.67
2019-03-03T19:42:54.455Z,99772.45
2019-03-03T19:48:19.094Z,99776.48
2019-03-03T19:53:43.893Z,99762.41
2019-03-03T19:59:08.529Z,99758.88
2019-03-03T20:04:33.040Z,99756.91
2019-03-03T20:09:58.112Z,99755.09
2019-03-03T20:15:21.964Z,99714.77
2019-03-03T20:20:45.653Z,99737.50
2019-03-03T20:26:09.413Z,99732.89
2019-03-03T20:31:35.657Z,99730.36
2019-03-03T20:36:59.320Z,99720.00
2019-03-03T20:42:24.053Z,99725.05
2019-03-03T20:47:49.336Z,99712.36
2019-03-03T20:53:14.383Z,99717.22
2019-03-03T20:58:39.099Z,99701.29
2019-03-03T21:04:04.076Z,99700.80
2019-03-03T21:09:27.686Z,99690.11
2019-03-03T21:14:51.761Z,99685.87
2019-03-03T21:20:16.894Z,99677.41
2019-03-03T21:25:41.077Z,99661.20
2019-03-03T21:31:04.841Z,99659.95
2019-03-03T21:36:29.504Z,99647.89
2019-03-03T21:41:54.096Z,99647.29
2019-03-03T21:47:17.950Z,99637.00
2019-03-03T21:52:41.674Z,99627.64
2019-03-03T21:58:07.005Z,99623.35
2019-03-03T22:03:31.144Z,99623.91
2019-03-03T22:08:55.031Z,99624.39
2019-03-03T22:14:19.050Z,99626.13
2019-03-03T22:19:43.827Z,99612.54
2019-03-03T22:25:08.724Z,99607.67
2019-03-03T22:30:32.993Z,99602.81
2019-03-03T22:35:57.004Z,99600.21
2019-03-03T22:41:20.785Z,99587.92
2019-03-03T22:46:44.913Z,99582.17
2019-03-03T22:52:09.545Z,99576.90
2019-03-03T22:57:34.254Z,99568.95
2019-03-03T23:02:59.051Z,99566.22
2019-03-03T23:08:40.982Z,99568.69
2019-03-03T23:14:29.446Z,99564.97
2019-03-03T23:20:25.331Z,99566.62
2019-03-03T23:25:49.819Z,99555.24
2019-03-03T23:31:14.617Z,99552.09
2019-03-03T23:36:39.178Z,99544.86
2019-03-03T23:42:04.021Z,99540.19
2019-03-03T23:47:27.881Z,99536.41
2019-03-03T23:52:52.536Z,99540.60
2019-03-03T23:58:16.183Z,99536.96
